Time;durP1;ratioP1;P1;durP2;ratioP2;P2;SDS_P1;SDS_P2;PMS_P1;PMS_P2;Temp;Humidity;BMP_temperature;BMP_pressure;BME280_temperature;BME280_humidity;BME280_pressure;Samples;Min_cycle;Max_cycle;Signal;HPM_P1;HPM_P2
2021/12/20 00:01:49;;;;;;;22.90;9.83;;;;;;;-1.48;100.00;96964.13;4925023;29;20233;-87
2021/12/20 00:04:16;;;;;;;36.87;9.03;;;;;;;-1.58;100.00;96966.78;4933739;29;20314;-88
2021/12/20 00:06:47;;;;;;;18.10;7.23;;;;;;;-1.60;100.00;96975.84;4950451;29;20312;-87
2021/12/20 00:09:14;;;;;;;28.47;7.93;;;;;;;-1.66;100.00;96973.75;4934785;29;20361;-87
2021/12/20 00:11:42;;;;;;;61.23;8.73;;;;;;;-1.76;100.00;96986.16;4937327;29;20236;-87
2021/12/20 00:14:09;;;;;;;30.40;8.07;;;;;;;-1.81;100.00;96970.69;4931787;29;20214;-87
2021/12/20 00:16:37;;;;;;;45.73;9.00;;;;;;;-1.81;100.00;96977.78;4927900;29;20272;-87
2021/12/20 00:19:09;;;;;;;43.87;8.27;;;;;;;-1.82;100.00;96984.91;4953052;28;20213;-87
2021/12/20 00:21:39;;;;;;;19.83;8.57;;;;;;;-1.82;100.00;96979.59;4924092;29;20211;-87
2021/12/20 00:24:07;;;;;;;44.80;8.93;;;;;;;-1.71;100.00;96970.69;4952788;29;20287;-87
2021/12/20 00:26:35;;;;;;;33.03;8.27;;;;;;;-1.78;100.00;96974.84;4932990;29;20201;-87
2021/12/20 00:29:02;;;;;;;14.53;8.37;;;;;;;-1.75;100.00;96977.22;4923642;29;20236;-87
2021/12/20 00:31:29;;;;;;;23.60;7.20;;;;;;;-1.77;100.00;96984.47;4932136;29;20239;-87
2021/12/20 00:33:58;;;;;;;21.13;7.93;;;;;;;-1.78;100.00;96975.69;4927604;29;20233;-87
2021/12/20 00:36:27;;;;;;;18.60;7.93;;;;;;;-1.77;100.00;96974.72;4931001;29;20220;-88
2021/12/20 00:41:39;;;;;;;16.63;8.57;;;;;;;-1.78;100.00;96986.28;4930192;29;20213;-87
2021/12/20 00:44:07;;;;;;;17.33;8.83;;;;;;;-1.83;100.00;96983.22;4932474;29;20216;-87
2021/12/20 00:46:34;;;;;;;32.07;8.53;;;;;;;-1.86;100.00;96982.66;4925350;29;20206;-87
2021/12/20 00:49:03;;;;;;;24.93;7.93;;;;;;;-1.90;100.00;96984.75;4933925;29;20208;-87
2021/12/20 00:51:30;;;;;;;18.83;8.80;;;;;;;-1.92;100.00;96978.75;4922427;29;20225;-87
2021/12/20 00:53:57;;;;;;;15.30;8.20;;;;;;;-1.91;100.00;96973.31;4934153;29;20308;-88
2021/12/20 00:56:24;;;;;;;18.50;7.50;;;;;;;-1.88;100.00;96969.56;4922929;29;20214;-88
2021/12/20 00:58:51;;;;;;;12.67;7.33;;;;;;;-1.87;100.00;96971.22;4929813;29;20206;-88
2021/12/20 01:01:18;;;;;;;11.77;6.40;;;;;;;-1.81;100.00;96981.28;4941635;28;20225;-87
2021/12/20 01:03:45;;;;;;;13.43;7.77;;;;;;;-1.84;100.00;96981.53;4946110;28;20255;-87
2021/12/20 01:06:14;;;;;;;12.37;7.47;;;;;;;-1.83;100.00;96983.22;4930691;29;20221;-87
2021/12/20 01:08:42;;;;;;;16.90;8.20;;;;;;;-1.83;100.00;96977.94;4922620;29;20270;-87
2021/12/20 01:11:09;;;;;;;22.90;8.20;;;;;;;-1.97;100.00;96987.13;4934833;29;20198;-87
2021/12/20 01:13:40;;;;;;;22.90;8.63;;;;;;;-1.99;100.00;96989.06;4934356;28;20236;-86
2021/12/20 01:16:11;;;;;;;18.90;8.13;;;;;;;-2.01;100.00;96985.72;4943297;29;20203;-87
2021/12/20 01:18:40;;;;;;;23.50;8.60;;;;;;;-2.02;100.00;96988.47;4935626;29;20212;-87
2021/12/20 01:21:08;;;;;;;23.60;7.57;;;;;;;-2.03;100.00;96992.09;4951484;29;20223;-86
2021/12/20 01:23:38;;;;;;;17.33;7.47;;;;;;;-2.08;100.00;96986.41;4935040;29;20214;-87
2021/12/20 01:26:05;;;;;;;30.43;8.73;;;;;;;-2.06;100.00;96990.59;4946302;29;20243;-85
2021/12/20 01:28:32;;;;;;;18.73;9.13;;;;;;;-2.03;100.00;96992.94;4925682;29;20242;-85
2021/12/20 01:31:00;;;;;;;13.33;8.10;;;;;;;-2.01;100.00;96984.88;4935995;29;20237;-85
2021/12/20 01:33:27;;;;;;;25.30;8.87;;;;;;;-2.03;100.00;96986.81;4934940;29;20234;-85
2021/12/20 01:35:55;;;;;;;14.70;8.13;;;;;;;-2.06;100.00;96997.69;4936748;29;20265;-85
2021/12/20 01:38:22;;;;;;;17.57;7.83;;;;;;;-2.04;100.00;96990.47;4934002;29;20229;-85
2021/12/20 01:40:51;;;;;;;16.27;8.20;;;;;;;-2.07;100.00;96988.91;4935811;29;20229;-85
2021/12/20 01:43:18;;;;;;;16.00;8.63;;;;;;;-2.02;100.00;96989.31;4937199;29;20205;-86
2021/12/20 01:45:49;;;;;;;21.23;8.83;;;;;;;-2.00;100.00;96992.69;4932399;29;20226;-84
2021/12/20 01:48:19;;;;;;;19.43;8.57;;;;;;;-2.01;100.00;96992.81;4931945;29;20209;-86
2021/12/20 01:51:14;;;;;;;20.83;9.17;;;;;;;-1.94;100.00;97001.88;4947265;29;20206;-84
2021/12/20 01:53:41;;;;;;;19.57;9.43;;;;;;;-1.95;100.00;96994.91;4945030;29;20236;-84
2021/12/20 01:56:11;;;;;;;21.87;8.90;;;;;;;-1.89;100.00;96998.81;4923847;29;20209;-85
2021/12/20 01:58:38;;;;;;;14.60;7.70;;;;;;;-1.87;100.00;97000.34;4944926;28;20244;-85
2021/12/20 02:01:20;;;;;;;16.90;8.97;;;;;;;-1.88;100.00;97001.34;4928675;29;20301;-86
2021/12/20 02:03:55;;;;;;;17.67;8.40;;;;;;;-1.93;100.00;96991.16;4936751;29;20230;-86
2021/12/20 02:06:27;;;;;;;25.13;9.33;;;;;;;-1.86;100.00;96987.94;4925022;29;20224;-85
2021/12/20 02:08:55;;;;;;;19.93;9.30;;;;;;;-1.91;100.00;96983.06;4931932;29;20217;-86
2021/12/20 02:11:24;;;;;;;19.17;8.80;;;;;;;-1.80;100.00;96988.25;4931733;29;20269;-86
2021/12/20 02:13:51;;;;;;;18.00;9.00;;;;;;;-1.79;100.00;96978.50;4933874;29;20201;-87
2021/12/20 02:16:19;;;;;;;16.73;8.67;;;;;;;-1.70;100.00;96982.97;4931781;29;20225;-86
2021/12/20 02:18:48;;;;;;;21.10;9.53;;;;;;;-1.61;100.00;96975.00;4932754;29;20205;-86
2021/12/20 02:21:18;;;;;;;23.40;9.27;;;;;;;-1.58;100.00;96982.66;4933828;29;20226;-85
2021/12/20 02:23:45;;;;;;;25.53;8.73;;;;;;;-1.60;100.00;96979.31;4935396;29;20283;-86
2021/12/20 02:26:14;;;;;;;26.67;9.50;;;;;;;-1.58;100.00;96977.38;4939975;29;20216;-85
2021/12/20 02:28:47;;;;;;;32.73;8.70;;;;;;;-1.61;100.00;96974.16;4928547;29;20214;-85
2021/12/20 02:37:01;;;;;;;22.73;8.90;;;;;;;-1.63;100.00;96969.03;4936279;29;20220;-86
2021/12/20 02:39:29;;;;;;;18.33;9.53;;;;;;;-1.59;100.00;96970.41;4931131;29;20243;-87
2021/12/20 02:41:56;;;;;;;19.00;9.73;;;;;;;-1.56;100.00;96961.34;4930248;29;20638;-86
2021/12/20 02:44:25;;;;;;;21.77;9.23;;;;;;;-1.46;100.00;96969.28;4925602;29;20206;-86
2021/12/20 02:47:05;;;;;;;19.30;9.47;;;;;;;-1.40;100.00;96966.06;4939101;29;20212;-86
2021/12/20 02:49:32;;;;;;;19.67;8.17;;;;;;;-1.40;100.00;96961.59;4939182;29;20229;-86
2021/12/20 02:52:03;;;;;;;19.53;9.10;;;;;;;-1.39;100.00;96955.34;4945602;28;20297;-85
2021/12/20 02:54:31;;;;;;;20.63;8.97;;;;;;;-1.37;100.00;96952.56;4927544;29;20214;-85
2021/12/20 02:56:58;;;;;;;23.33;8.70;;;;;;;-1.44;100.00;96956.72;4941494;28;20217;-86
2021/12/20 02:59:26;;;;;;;23.07;9.47;;;;;;;-1.42;100.00;96954.78;4925179;29;20354;-85
2021/12/20 03:01:56;;;;;;;19.97;8.97;;;;;;;-1.47;100.00;96960.50;4925196;29;20206;-86
2021/12/20 03:04:23;;;;;;;21.03;9.63;;;;;;;-1.44;100.00;96956.72;4927154;29;20209;-86
2021/12/20 03:06:53;;;;;;;23.57;9.27;;;;;;;-1.48;100.00;96953.53;4920791;29;20205;-86
2021/12/20 03:09:29;;;;;;;24.80;9.90;;;;;;;-1.47;100.00;96946.44;4924835;28;20266;-87
2021/12/20 03:11:59;;;;;;;20.93;9.23;;;;;;;-1.42;100.00;96949.47;4938026;28;20205;-86
2021/12/20 03:14:33;;;;;;;21.23;9.30;;;;;;;-1.36;100.00;96936.50;4933876;29;20212;-86
2021/12/20 03:17:01;;;;;;;21.93;9.57;;;;;;;-1.31;100.00;96941.38;4941666;29;20263;-86
2021/12/20 03:19:29;;;;;;;21.50;9.47;;;;;;;-1.32;100.00;96931.75;4931019;29;20269;-87
2021/12/20 03:21:57;;;;;;;26.73;10.77;;;;;;;-1.28;100.00;96935.81;4922514;29;20213;-87
2021/12/20 03:24:26;;;;;;;27.47;10.10;;;;;;;-1.26;100.00;96928.53;4930810;28;20205;-86
2021/12/20 03:26:53;;;;;;;23.50;10.60;;;;;;;-1.29;100.00;96934.13;4935150;29;20213;-86
2021/12/20 03:29:21;;;;;;;25.60;9.80;;;;;;;-1.28;100.00;96928.69;4932395;29;20226;-86
2021/12/20 03:31:48;;;;;;;25.67;11.03;;;;;;;-1.22;100.00;96929.94;4928266;29;20228;-86
2021/12/20 03:34:16;;;;;;;25.17;9.80;;;;;;;-1.18;100.00;96931.28;4934741;29;20249;-86
2021/12/20 03:36:43;;;;;;;24.77;10.23;;;;;;;-1.26;100.00;96921.41;4927537;29;20230;-85
2021/12/20 03:39:11;;;;;;;23.30;9.63;;;;;;;-1.21;100.00;96926.31;4932721;29;20209;-85
2021/12/20 03:41:40;;;;;;;21.13;9.80;;;;;;;-1.22;100.00;96924.63;4932516;29;20325;-86
2021/12/20 03:44:08;;;;;;;28.00;11.33;;;;;;;-1.22;100.00;96930.78;4933222;29;20197;-86
2021/12/20 03:46:36;;;;;;;28.37;10.53;;;;;;;-1.28;100.00;96918.09;4934480;29;20217;-87
2021/12/20 03:49:04;;;;;;;19.83;10.03;;;;;;;-1.22;100.00;96914.88;4931195;29;20210;-85
2021/12/20 03:51:31;;;;;;;21.83;8.87;;;;;;;-1.19;100.00;96911.91;4929038;29;20221;-87
2021/12/20 03:53:58;;;;;;;20.67;9.10;;;;;;;-1.19;100.00;96903.97;4925584;29;20561;-86
2021/12/20 03:56:26;;;;;;;16.03;8.67;;;;;;;-1.13;100.00;96901.72;4926941;29;20224;-86
2021/12/20 03:58:54;;;;;;;20.00;9.60;;;;;;;-1.04;100.00;96908.81;4940686;28;20221;-86
2021/12/20 04:01:22;;;;;;;21.20;9.17;;;;;;;-1.04;100.00;96904.34;4930322;29;20212;-86
2021/12/20 04:03:49;;;;;;;21.13;9.13;;;;;;;-1.09;100.00;96901.28;4929656;29;20210;-86
2021/12/20 04:06:16;;;;;;;20.00;9.00;;;;;;;-1.02;100.00;96915.63;4933662;29;20224;-86
2021/12/20 04:08:44;;;;;;;19.87;8.77;;;;;;;-0.98;100.00;96910.88;4942899;29;20305;-86
2021/12/20 04:11:11;;;;;;;17.70;8.83;;;;;;;-0.93;100.00;96898.84;4936111;29;20225;-86
2021/12/20 04:13:38;;;;;;;16.07;8.20;;;;;;;-0.90;100.00;96898.56;4935432;29;20236;-86
2021/12/20 04:16:07;;;;;;;16.07;8.70;;;;;;;-0.84;100.00;96899.78;4933998;29;20213;-86
2021/12/20 04:18:35;;;;;;;15.97;8.93;;;;;;;-0.83;100.00;96910.25;4948365;29;20221;-86
2021/12/20 04:21:03;;;;;;;16.90;8.40;;;;;;;-0.81;100.00;96908.31;4925902;29;20205;-86
2021/12/20 04:23:30;;;;;;;15.60;8.20;;;;;;;-0.81;100.00;96907.47;4934695;29;20212;-86
2021/12/20 04:25:57;;;;;;;18.00;8.43;;;;;;;-0.83;100.00;96899.66;4929930;29;20225;-85
2021/12/20 04:28:24;;;;;;;15.23;8.00;;;;;;;-0.88;100.00;96895.78;4936835;29;20232;-86
2021/12/20 04:30:52;;;;;;;15.60;8.03;;;;;;;-0.89;100.00;96891.44;4950329;28;20264;-85
2021/12/20 04:33:20;;;;;;;15.00;7.93;;;;;;;-0.92;100.00;96889.91;4943147;29;20218;-86
2021/12/20 04:35:48;;;;;;;14.53;8.03;;;;;;;-0.90;100.00;96898.56;4948749;29;20245;-86
2021/12/20 04:38:15;;;;;;;14.43;7.53;;;;;;;-0.96;100.00;96885.91;4929920;29;20223;-86
2021/12/20 04:40:43;;;;;;;17.43;8.37;;;;;;;-0.92;100.00;96897.88;4932092;29;20204;-86
2021/12/20 04:43:10;;;;;;;15.03;8.20;;;;;;;-0.89;100.00;96900.25;4928711;29;20213;-88
2021/12/20 04:45:38;;;;;;;14.87;7.50;;;;;;;-0.89;100.00;96900.25;4935759;29;20217;-86
2021/12/20 04:48:06;;;;;;;14.43;7.70;;;;;;;-0.88;100.00;96901.91;4945818;29;20289;-85
2021/12/20 04:50:34;;;;;;;14.10;7.37;;;;;;;-0.90;100.00;96893.28;4950036;28;20595;-87
2021/12/20 04:53:02;;;;;;;15.53;7.97;;;;;;;-0.88;100.00;96886.00;4933158;29;20233;-86
2021/12/20 04:55:30;;;;;;;16.27;8.37;;;;;;;-0.89;100.00;96896.75;4930258;28;20220;-86
2021/12/20 04:57:58;;;;;;;17.07;8.13;;;;;;;-0.90;100.00;96895.91;4930585;29;20203;-86
2021/12/20 05:00:27;;;;;;;15.60;8.40;;;;;;;-0.80;100.00;96893.22;4929816;29;20217;-86
2021/12/20 05:02:54;;;;;;;14.70;8.33;;;;;;;-0.79;100.00;96885.13;4950181;29;20205;-87
2021/12/20 05:05:22;;;;;;;16.27;8.33;;;;;;;-0.81;100.00;96884.44;4931011;29;20222;-87
2021/12/20 05:07:53;;;;;;;16.13;7.50;;;;;;;-0.83;100.00;96883.75;4929068;29;20216;-87
2021/12/20 05:10:29;;;;;;;18.70;7.97;;;;;;;-0.90;100.00;96885.31;4933332;29;20224;-87
2021/12/20 05:13:00;;;;;;;16.10;8.10;;;;;;;-0.86;100.00;96888.53;4933685;29;20287;-85
2021/12/20 05:15:28;;;;;;;15.27;7.90;;;;;;;-0.89;100.00;96883.50;4939297;29;20217;-86
2021/12/20 05:17:56;;;;;;;17.37;8.33;;;;;;;-0.90;100.00;96882.66;4931413;29;20210;-86
2021/12/20 05:20:24;;;;;;;15.80;8.80;;;;;;;-0.92;100.00;96874.00;4944084;28;20205;-87
2021/12/20 05:22:53;;;;;;;16.97;8.60;;;;;;;-0.92;100.00;96876.66;4934834;29;20208;-88
2021/12/20 05:25:20;;;;;;;16.53;8.57;;;;;;;-0.86;100.00;96888.53;4932584;29;20217;-86
2021/12/20 05:27:48;;;;;;;13.73;7.17;;;;;;;-0.87;100.00;96893.00;4933119;29;20226;-86
2021/12/20 05:30:16;;;;;;;13.20;7.27;;;;;;;-0.97;100.00;96876.28;4931130;29;20268;-86
2021/12/20 05:32:43;;;;;;;16.63;8.73;;;;;;;-1.00;100.00;96868.59;4946882;29;20214;-86
2021/12/20 05:35:13;;;;;;;18.43;8.07;;;;;;;-0.95;100.00;96884.09;4930602;29;20320;-86
2021/12/20 05:37:41;;;;;;;18.57;8.90;;;;;;;-1.02;100.00;96873.22;4930250;29;20273;-85
2021/12/20 05:40:12;;;;;;;16.27;8.07;;;;;;;-0.98;100.00;96877.25;4932082;29;20229;-86
2021/12/20 05:42:40;;;;;;;18.10;8.60;;;;;;;-0.93;100.00;96872.34;4932221;29;20275;-87
2021/12/20 05:45:08;;;;;;;17.67;8.70;;;;;;;-0.83;100.00;96883.75;4931017;29;20198;-86
2021/12/20 05:47:35;;;;;;;17.83;9.00;;;;;;;-0.78;100.00;96881.50;4949863;29;20209;-87
2021/12/20 05:50:04;;;;;;;13.60;8.10;;;;;;;-0.67;100.00;96903.47;4927692;29;20201;-86
2021/12/20 05:52:32;;;;;;;20.30;9.23;;;;;;;-0.69;100.00;96905.47;4952803;29;20213;-86
2021/12/20 05:54:59;;;;;;;16.03;8.33;;;;;;;-0.76;100.00;96903.38;4924040;29;20261;-86
2021/12/20 05:57:28;;;;;;;17.87;8.37;;;;;;;-0.80;100.00;96915.28;4928005;29;20205;-87
2021/12/20 05:59:55;;;;;;;16.13;8.27;;;;;;;-0.76;100.00;96921.94;4931759;29;20214;-86
2021/12/20 06:02:22;;;;;;;16.17;8.33;;;;;;;-0.77;100.00;96917.63;4932181;29;20309;-86
2021/12/20 06:04:51;;;;;;;16.50;8.63;;;;;;;-0.69;100.00;96932.81;4951621;29;20217;-87
2021/12/20 06:07:19;;;;;;;18.33;8.43;;;;;;;-0.68;100.00;96923.84;4930410;29;20206;-86
2021/12/20 06:09:47;;;;;;;16.93;9.23;;;;;;;-0.70;100.00;96927.66;4933289;29;20252;-86
2021/12/20 06:12:14;;;;;;;15.67;8.47;;;;;;;-0.73;100.00;96927.94;4938150;29;20205;-86
2021/12/20 06:14:42;;;;;;;16.73;9.13;;;;;;;-0.69;100.00;96935.47;4937670;29;20245;-87
2021/12/20 06:17:09;;;;;;;16.80;8.63;;;;;;;-0.68;100.00;96931.81;4931891;29;20228;-87
2021/12/20 06:19:37;;;;;;;16.43;9.17;;;;;;;-0.60;100.00;96939.06;4933484;28;20543;-86
2021/12/20 06:22:04;;;;;;;19.43;9.33;;;;;;;-0.57;100.00;96931.63;4929609;29;20225;-87
2021/12/20 06:24:32;;;;;;;18.13;8.13;;;;;;;-0.52;100.00;96933.88;4947610;29;20224;-86
2021/12/20 06:26:59;;;;;;;16.37;8.60;;;;;;;-0.51;100.00;96927.56;4928920;29;20213;-86
2021/12/20 06:29:27;;;;;;;16.63;9.20;;;;;;;-0.51;100.00;96935.53;4939479;29;20232;-87
2021/12/20 06:31:55;;;;;;;17.23;9.30;;;;;;;-0.49;100.00;96930.91;4930512;29;20245;-87
2021/12/20 06:34:23;;;;;;;15.13;8.33;;;;;;;-0.47;100.00;96936.91;4937984;29;20352;-86
2021/12/20 06:36:50;;;;;;;12.97;7.33;;;;;;;-0.54;100.00;96922.56;4933598;29;20297;-86
2021/12/20 06:39:17;;;;;;;18.47;8.97;;;;;;;-0.70;100.00;96925.00;4935583;29;20239;-87
2021/12/20 06:41:45;;;;;;;15.80;9.07;;;;;;;-0.83;100.00;96931.47;4925959;29;20292;-86
2021/12/20 06:44:12;;;;;;;16.63;8.57;;;;;;;-0.88;100.00;96933.72;4935427;29;20214;-86
2021/12/20 06:46:42;;;;;;;20.20;9.77;;;;;;;-0.89;100.00;96933.88;4926160;29;20213;-86
2021/12/20 06:49:13;;;;;;;18.10;8.37;;;;;;;-0.87;100.00;96940.72;4927938;29;20206;-87
2021/12/20 06:51:43;;;;;;;16.83;8.97;;;;;;;-0.90;100.00;96937.50;4928413;29;20768;-86
2021/12/20 06:54:10;;;;;;;16.77;8.27;;;;;;;-0.93;100.00;96943.06;4949150;28;20221;-86
2021/12/20 06:56:38;;;;;;;19.77;8.57;;;;;;;-0.95;100.00;96937.09;4937235;29;20269;-87
2021/12/20 06:59:05;;;;;;;17.73;9.00;;;;;;;-0.96;100.00;96949.53;4926022;29;20216;-86
2021/12/20 07:01:32;;;;;;;17.40;8.67;;;;;;;-0.97;100.00;96949.66;4932950;29;20216;-86
2021/12/20 07:04:01;;;;;;;18.00;8.57;;;;;;;-0.92;100.00;96945.59;4933569;29;20217;-86
2021/12/20 07:06:31;;;;;;;16.27;8.03;;;;;;;-0.89;100.00;96947.97;4938263;29;20213;-86
2021/12/20 07:08:58;;;;;;;17.67;9.20;;;;;;;-0.88;100.00;96944.34;4935894;29;20216;-86
2021/12/20 07:11:25;;;;;;;20.50;9.47;;;;;;;-0.78;100.00;96954.91;4931924;29;20299;-86
2021/12/20 07:13:54;;;;;;;17.57;9.20;;;;;;;-0.81;100.00;96956.03;4933323;28;20258;-86
2021/12/20 07:16:22;;;;;;;20.10;9.77;;;;;;;-0.77;100.00;96960.03;4929282;29;20210;-86
2021/12/20 07:18:49;;;;;;;18.43;9.10;;;;;;;-0.77;100.00;96970.66;4930569;29;20202;-86
2021/12/20 07:21:17;;;;;;;16.60;9.13;;;;;;;-0.74;100.00;96963.41;4931381;29;20231;-86
2021/12/20 07:23:45;;;;;;;19.73;8.73;;;;;;;-0.80;100.00;96963.00;4937270;29;20240;-87
2021/12/20 07:26:13;;;;;;;16.57;8.33;;;;;;;-0.77;100.00;96960.03;4934469;29;20245;-86
2021/12/20 07:28:41;;;;;;;14.83;8.53;;;;;;;-0.79;100.00;96963.84;4933851;29;20230;-87
2021/12/20 07:31:08;;;;;;;16.57;8.63;;;;;;;-0.84;100.00;96960.78;4931930;29;20284;-88
2021/12/20 07:33:36;;;;;;;17.43;8.37;;;;;;;-0.87;100.00;96961.91;4939219;29;20255;-86
2021/12/20 07:36:03;;;;;;;15.70;7.57;;;;;;;-0.85;100.00;96967.09;4931354;29;20328;-87
2021/12/20 07:38:30;;;;;;;15.87;7.90;;;;;;;-0.84;100.00;96960.78;4922696;29;20228;-87
2021/12/20 07:40:59;;;;;;;15.17;8.27;;;;;;;-0.85;100.00;96954.63;4936499;29;20216;-86
2021/12/20 07:43:26;;;;;;;13.53;7.70;;;;;;;-0.74;100.00;96968.69;4953824;28;20241;-86
2021/12/20 07:45:54;;;;;;;13.57;8.00;;;;;;;-0.78;100.00;96976.97;4924461;29;20296;-87
2021/12/20 07:48:22;;;;;;;16.70;9.00;;;;;;;-0.83;100.00;96968.59;4937192;29;20256;-86
2021/12/20 07:50:51;;;;;;;15.37;8.27;;;;;;;-0.78;100.00;96976.13;4946333;29;20344;-86
2021/12/20 07:53:18;;;;;;;15.13;8.10;;;;;;;-0.73;100.00;96973.88;4931581;29;20223;-86
2021/12/20 07:55:46;;;;;;;17.00;8.97;;;;;;;-0.78;100.00;96970.81;4928199;29;20205;-85
2021/12/20 07:58:14;;;;;;;14.83;8.63;;;;;;;-0.77;100.00;96972.50;4934086;29;20228;-86
2021/12/20 08:00:41;;;;;;;18.00;8.97;;;;;;;-0.72;100.00;96969.41;4936234;29;20205;-86
2021/12/20 08:03:09;;;;;;;14.63;6.90;;;;;;;-0.70;100.00;96967.44;4932503;29;20311;-86
2021/12/20 08:05:36;;;;;;;14.73;8.03;;;;;;;-0.74;100.00;96958.94;4930303;29;20202;-85
2021/12/20 08:08:04;;;;;;;16.50;8.97;;;;;;;-0.72;100.00;96958.78;4928737;29;20221;-86
2021/12/20 08:10:31;;;;;;;15.20;8.30;;;;;;;-0.69;100.00;96961.16;4932236;29;20210;-86
2021/12/20 08:12:58;;;;;;;15.63;8.07;;;;;;;-0.71;100.00;96957.81;4923670;29;20245;-86
2021/12/20 08:15:27;;;;;;;16.20;8.17;;;;;;;-0.69;100.00;96964.66;4929391;29;20242;-87
2021/12/20 08:17:55;;;;;;;14.23;8.17;;;;;;;-0.60;100.00;96970.91;4926262;29;20217;-86
2021/12/20 08:20:23;;;;;;;17.17;8.70;;;;;;;-0.55;100.00;96971.28;4933256;29;20209;-86
2021/12/20 08:22:51;;;;;;;17.73;8.37;;;;;;;-0.53;100.00;96971.97;4967495;28;20212;-86
2021/12/20 08:25:20;;;;;;;16.20;8.00;;;;;;;-0.54;100.00;96963.19;4945777;28;20237;-86
2021/12/20 08:27:50;;;;;;;15.60;7.87;;;;;;;-0.55;100.00;96966.81;4930721;29;20232;-86
2021/12/20 08:30:18;;;;;;;16.03;8.13;;;;;;;-0.54;100.00;96965.00;4958637;28;20213;-86
2021/12/20 08:32:46;;;;;;;17.77;8.27;;;;;;;-0.51;100.00;96965.53;4923878;29;20218;-86
2021/12/20 08:35:14;;;;;;;17.57;8.63;;;;;;;-0.46;100.00;96965.94;4920132;29;20331;-86
2021/12/20 08:37:42;;;;;;;14.43;7.83;;;;;;;-0.55;100.00;96965.97;4937678;29;20211;-85
2021/12/20 08:40:13;;;;;;;13.67;7.37;;;;;;;-0.49;100.00;96965.38;4931055;29;20304;-86
2021/12/20 08:42:41;;;;;;;14.77;7.43;;;;;;;-0.50;100.00;96964.53;4929379;29;20206;-87
2021/12/20 08:45:10;;;;;;;15.77;8.23;;;;;;;-0.51;100.00;96962.06;4943643;29;20609;-86
2021/12/20 08:47:38;;;;;;;17.33;7.80;;;;;;;-0.49;100.00;96965.38;4949791;29;20303;-86
2021/12/20 08:50:09;;;;;;;15.43;7.60;;;;;;;-0.45;100.00;96964.13;4942143;29;20222;-85
2021/12/20 08:52:36;;;;;;;16.27;8.80;;;;;;;-0.43;100.00;96970.13;4935861;29;20296;-86
2021/12/20 08:55:04;;;;;;;15.33;7.83;;;;;;;-0.42;100.00;96969.09;4931928;29;20540;-86
2021/12/20 08:57:32;;;;;;;17.00;7.27;;;;;;;-0.36;100.00;96971.19;4919703;29;20223;-87
2021/12/20 08:59:59;;;;;;;16.43;8.57;;;;;;;-0.36;100.00;96967.72;4935011;29;20198;-86
2021/12/20 09:02:26;;;;;;;19.70;9.77;;;;;;;-0.34;100.00;96969.22;4933618;29;20220;-85
2021/12/20 09:04:53;;;;;;;20.97;9.40;;;;;;;-0.36;100.00;96976.50;4932735;29;20290;-85
2021/12/20 09:07:21;;;;;;;16.50;8.50;;;;;;;-0.25;100.00;96978.09;4947220;29;20206;-86
2021/12/20 09:09:48;;;;;;;16.70;8.37;;;;;;;-0.23;100.00;96973.50;4934080;29;20210;-86
2021/12/20 09:12:18;;;;;;;16.57;8.87;;;;;;;-0.18;100.00;96974.75;4921020;29;20226;-85
2021/12/20 09:14:45;;;;;;;17.23;7.83;;;;;;;-0.12;100.00;96974.13;4918664;29;20233;-85
2021/12/20 09:17:12;;;;;;;17.03;8.90;;;;;;;-0.07;100.00;96977.16;4928761;29;20273;-86
2021/12/20 09:19:39;;;;;;;14.90;8.03;;;;;;;-0.06;100.00;96973.53;4931521;29;20210;-86
2021/12/20 09:22:07;;;;;;;14.90;8.53;;;;;;;-0.06;100.00;96973.53;4924477;29;20206;-86
2021/12/20 09:24:35;;;;;;;15.00;8.17;;;;;;;0.01;100.00;96979.06;4931254;29;20220;-85
2021/12/20 09:27:04;;;;;;;19.33;9.23;;;;;;;0.05;100.00;96971.66;4936827;29;20272;-86
2021/12/20 09:29:32;;;;;;;16.90;8.83;;;;;;;0.09;100.00;96976.50;4944917;28;20221;-86
2021/12/20 09:31:59;;;;;;;17.10;8.27;;;;;;;0.16;100.00;96982.06;4926972;29;20225;-86
2021/12/20 09:34:27;;;;;;;16.80;8.57;;;;;;;0.23;100.00;96981.31;4934687;29;20237;-87
2021/12/20 09:36:55;;;;;;;18.27;8.53;;;;;;;0.22;100.00;96978.81;4920990;29;20269;-86
2021/12/20 09:39:22;;;;;;;14.37;8.30;;;;;;;0.11;100.00;96984.31;4919524;29;20202;-86
2021/12/20 09:42:03;;;;;;;15.97;8.97;;;;;;;0.07;100.00;96977.66;4917851;29;20588;-86
2021/12/20 09:44:32;;;;;;;14.90;7.73;;;;;;;0.05;100.00;96983.09;4944063;29;20218;-86
2021/12/20 09:47:01;;;;;;;19.23;9.00;;;;;;;0.02;100.00;96977.25;4926103;29;20232;-87
2021/12/20 09:49:30;;;;;;;16.90;8.87;;;;;;;0.04;100.00;96983.25;4930959;29;20226;-86
2021/12/20 09:51:58;;;;;;;15.93;8.77;;;;;;;-0.01;100.00;96976.59;4927668;29;20218;-86
2021/12/20 09:54:26;;;;;;;15.37;8.30;;;;;;;0.07;100.00;96975.00;4927479;29;20224;-86
2021/12/20 09:56:56;;;;;;;13.07;7.60;;;;;;;0.07;100.00;96972.34;4932673;29;20308;-87
2021/12/20 09:59:26;;;;;;;16.27;8.33;;;;;;;0.09;100.00;96965.03;4946595;28;20224;-86
2021/12/20 10:01:54;;;;;;;21.77;8.37;;;;;;;0.06;100.00;96970.66;4931030;29;20197;-87
2021/12/20 10:04:22;;;;;;;14.27;7.77;;;;;;;0.08;100.00;96968.72;4935433;29;20234;-87
2021/12/20 10:06:54;;;;;;;13.07;7.60;;;;;;;0.09;100.00;96971.19;4920725;29;20218;-86
2021/12/20 10:09:26;;;;;;;18.50;8.83;;;;;;;0.14;100.00;96965.44;4929111;29;20237;-87
2021/12/20 10:12:16;;;;;;;15.60;7.77;;;;;;;0.27;100.00;96960.56;4942636;28;20223;-86
2021/12/20 10:15:02;;;;;;;14.37;7.57;;;;;;;0.30;100.00;96968.25;4928832;29;20231;-86
2021/12/20 10:17:31;;;;;;;15.53;8.13;;;;;;;0.33;100.00;96963.50;4931629;29;20212;-86
2021/12/20 10:20:18;;;;;;;15.77;8.23;;;;;;;0.35;100.00;96950.03;4931189;29;20217;-86
2021/12/20 10:22:45;;;;;;;12.93;7.33;;;;;;;0.40;100.00;96958.41;4932674;28;20233;-88
2021/12/20 10:25:28;;;;;;;14.87;7.57;;;;;;;0.36;100.00;96952.53;4948400;28;20213;-86
2021/12/20 10:28:06;;;;;;;14.33;7.03;;;;;;;0.44;100.00;96951.78;4940118;28;20320;-86
2021/12/20 10:30:37;;;;;;;15.63;7.20;;;;;;;0.47;100.00;96950.66;4942522;28;20217;-86
2021/12/20 10:33:04;;;;;;;12.00;6.80;;;;;;;0.47;100.00;96958.63;4955247;28;20241;-87
2021/12/20 10:35:34;;;;;;;15.63;8.50;;;;;;;0.49;100.00;96954.00;4940444;28;20233;-85
2021/12/20 10:38:04;;;;;;;13.63;7.40;;;;;;;0.52;100.00;96961.63;4952352;28;20231;-86
2021/12/20 10:40:34;;;;;;;13.27;6.97;;;;;;;0.50;100.00;96950.34;4964743;28;20205;-86
2021/12/20 10:43:06;;;;;;;13.83;7.60;;;;;;;0.49;100.00;96954.00;4945058;28;20209;-86
2021/12/20 10:45:33;;;;;;;15.47;7.80;;;;;;;0.47;100.00;96947.97;4944306;28;20197;-86
2021/12/20 10:48:10;;;;;;;17.80;7.70;;;;;;;0.56;100.00;96947.06;4945965;28;20208;-86
2021/12/20 10:50:42;;;;;;;14.97;7.60;;;;;;;0.61;100.00;96939.47;4945699;28;20236;-86
2021/12/20 10:53:21;;;;;;;12.60;7.37;;;;;;;0.62;100.00;96925.19;4950429;28;20193;-86
2021/12/20 10:55:50;;;;;;;12.40;6.90;;;;;;;0.56;100.00;96929.31;4951025;28;20225;-87
2021/12/20 10:58:31;;;;;;;11.83;6.50;;;;;;;0.46;100.00;96925.91;4944043;28;20212;-85
2021/12/20 11:01:05;;;;;;;12.50;7.27;;;;;;;0.51;100.00;96933.41;4958528;28;20213;-86
2021/12/20 11:03:38;;;;;;;13.23;6.90;;;;;;;0.54;100.00;96928.63;4942227;28;20217;-86
2021/12/20 11:06:24;;;;;;;12.17;6.47;;;;;;;0.52;100.00;96919.13;4948245;28;20220;-85
2021/12/20 11:09:08;;;;;;;13.93;7.00;;;;;;;0.62;100.00;96920.72;4947819;28;20224;-86
2021/12/20 11:11:39;;;;;;;13.03;7.80;;;;;;;0.65;100.00;96925.72;4965504;28;20252;-85
2021/12/20 11:14:09;;;;;;;14.13;7.47;;;;;;;0.58;100.00;96914.03;4950796;28;20216;-86
2021/12/20 11:16:39;;;;;;;13.03;7.33;;;;;;;0.63;100.00;96916.22;4963328;28;20236;-86
2021/12/20 11:19:12;;;;;;;16.57;7.87;;;;;;;0.70;100.00;96903.97;4953254;28;20212;-86
2021/12/20 11:21:45;;;;;;;13.07;7.80;;;;;;;0.75;100.00;96910.53;4951044;28;20217;-86
2021/12/20 11:24:14;;;;;;;14.43;8.10;;;;;;;0.73;100.00;96901.84;4939798;28;20248;-86
2021/12/20 11:26:41;;;;;;;15.13;8.60;;;;;;;0.74;100.00;96900.88;4945181;28;20273;-86
2021/12/20 11:29:10;;;;;;;16.03;9.07;;;;;;;0.62;100.00;96899.44;4945448;28;20291;-85
2021/12/20 11:31:38;;;;;;;16.27;8.90;;;;;;;0.63;100.00;96892.31;4949359;28;20193;-86
2021/12/20 11:34:06;;;;;;;14.73;7.60;;;;;;;0.64;100.00;96897.47;4946171;28;20211;-85
2021/12/20 11:36:34;;;;;;;12.93;7.80;;;;;;;0.66;100.00;96894.66;4949207;28;20240;-85